createdAt,value
2023-03-11T00:00:47.166Z,68.37
2023-03-11T00:03:53.604Z,67.64
2023-03-11T00:06:57.342Z,67.89
2023-03-11T00:10:01.199Z,67.82
2023-03-11T00:13:07.741Z,69.02
2023-03-11T00:16:11.546Z,68.48
2023-03-11T00:19:15.136Z,69.00
2023-03-11T00:22:18.550Z,69.25
2023-03-11T00:25:23.106Z,69.16
2023-03-11T00:28:28.020Z,69.32
2023-03-11T00:31:31.443Z,70.10
2023-03-11T00:34:35.733Z,69.93
2023-03-11T00:37:39.192Z,69.84
2023-03-11T00:40:43.092Z,70.53
2023-03-11T00:43:48.003Z,71.01
2023-03-11T00:46:51.501Z,70.66
2023-03-11T00:49:55.025Z,70.39
2023-03-11T00:52:59.373Z,70.08
2023-03-11T00:56:08.694Z,69.01
2023-03-11T00:59:14.077Z,68.69
2023-03-11T01:02:17.661Z,68.84
2023-03-11T01:05:22.371Z,68.38
2023-03-11T01:08:27.119Z,68.02
2023-03-11T01:11:31.635Z,67.91
2023-03-11T01:14:36.648Z,68.47
2023-03-11T01:17:40.247Z,69.03
2023-03-11T01:20:44.029Z,68.82
2023-03-11T01:23:48.122Z,69.68
2023-03-11T01:26:54.178Z,70.58
2023-03-11T01:29:59.076Z,70.88
2023-03-11T01:33:03.595Z,71.65
2023-03-11T01:36:10.078Z,71.27
2023-03-11T01:39:13.846Z,71.14
2023-03-11T01:42:17.354Z,71.03
2023-03-11T01:45:42.713Z,70.87
2023-03-11T01:48:50.317Z,70.85
2023-03-11T01:51:58.406Z,70.25
2023-03-11T01:55:01.891Z,71.17
2023-03-11T01:58:09.265Z,70.91
2023-03-11T02:01:15.205Z,71.65
2023-03-11T02:04:21.541Z,72.06
2023-03-11T02:07:25.203Z,72.62
2023-03-11T02:10:29.394Z,73.45
2023-03-11T02:13:35.427Z,73.68
2023-03-11T02:16:40.590Z,74.44
2023-03-11T02:20:01.253Z,74.46
2023-03-11T02:23:06.148Z,74.94
2023-03-11T02:26:16.972Z,75.45
2023-03-11T02:29:23.689Z,75.42
2023-03-11T02:32:28.142Z,75.54
2023-03-11T02:35:32.569Z,76.41
2023-03-11T02:38:37.100Z,77.60
2023-03-11T02:41:45.552Z,77.67
2023-03-11T02:44:57.856Z,78.37
2023-03-11T02:48:05.759Z,78.41
2023-03-11T02:51:10.887Z,78.82
2023-03-11T02:54:14.808Z,78.85
2023-03-11T02:57:19.190Z,80.11
2023-03-11T03:00:25.054Z,79.57
2023-03-11T03:03:38.037Z,80.48
2023-03-11T03:06:42.067Z,80.26
2023-03-11T03:09:45.730Z,79.85
2023-03-11T03:12:49.612Z,80.53
2023-03-11T03:15:54.989Z,81.08
2023-03-11T03:18:58.515Z,81.35
2023-03-11T03:22:02.708Z,81.27
2023-03-11T03:25:07.152Z,81.69
2023-03-11T03:28:11.762Z,82.30
2023-03-11T03:31:19.132Z,81.97
2023-03-11T03:34:22.819Z,82.43
2023-03-11T03:37:28.143Z,82.53
2023-03-11T03:40:32.069Z,81.97
2023-03-11T03:43:38.772Z,82.52
2023-03-11T03:46:43.960Z,82.08
2023-03-11T03:49:47.793Z,82.74
2023-03-11T03:52:51.489Z,82.47
2023-03-11T03:55:57.104Z,82.80
2023-03-11T03:59:01.104Z,82.75
2023-03-11T04:02:12.744Z,82.96
2023-03-11T04:05:16.775Z,82.96
2023-03-11T04:08:21.452Z,81.93
2023-03-11T04:11:25.098Z,83.18
2023-03-11T04:14:29.267Z,82.89
2023-03-11T04:17:38.431Z,82.26
2023-03-11T04:20:42.256Z,82.86
2023-03-11T04:23:46.601Z,83.21
2023-03-11T04:26:52.110Z,83.08
2023-03-11T04:29:56.255Z,83.39
2023-03-11T04:33:01.118Z,82.89
2023-03-11T04:36:07.628Z,82.61
2023-03-11T04:39:12.907Z,83.29
2023-03-11T04:42:19.505Z,82.98
2023-03-11T04:45:24.574Z,82.39
2023-03-11T04:48:32.975Z,82.44
2023-03-11T04:51:36.865Z,82.77
2023-03-11T04:54:41.881Z,83.71
2023-03-11T04:57:45.980Z,82.87
2023-03-11T05:00:51.094Z,81.49
2023-03-11T05:03:56.110Z,81.05
2023-03-11T05:06:59.811Z,80.40
2023-03-11T05:10:04.254Z,80.70
2023-03-11T05:13:09.429Z,81.68
2023-03-11T05:16:15.078Z,81.24
2023-03-11T05:19:32.019Z,82.16
2023-03-11T05:22:38.349Z,81.60
2023-03-11T05:25:42.516Z,81.87
2023-03-11T05:28:46.976Z,80.83
2023-03-11T05:31:51.053Z,79.57
2023-03-11T05:34:56.437Z,79.11
2023-03-11T05:38:00.088Z,78.01
2023-03-11T05:41:06.609Z,77.64
2023-03-11T05:44:11.196Z,77.41
2023-03-11T05:47:15.033Z,77.75
2023-03-11T05:50:20.521Z,76.10
2023-03-11T05:53:26.349Z,75.54
2023-03-11T05:56:30.166Z,75.95
2023-03-11T05:59:35.641Z,75.21
2023-03-11T06:02:42.228Z,76.14
2023-03-11T06:05:52.882Z,76.53
2023-03-11T06:08:56.689Z,77.22
2023-03-11T06:12:04.922Z,76.58
2023-03-11T06:15:22.084Z,76.94
2023-03-11T06:18:27.133Z,77.11
2023-03-11T06:21:32.454Z,76.81
2023-03-11T06:24:36.022Z,77.77
2023-03-11T06:27:39.989Z,78.57
2023-03-11T06:30:44.438Z,78.95
2023-03-11T06:33:51.195Z,79.42
2023-03-11T06:36:57.316Z,80.13
2023-03-11T06:40:01.011Z,80.82
2023-03-11T06:43:04.574Z,81.38
2023-03-11T06:46:12.352Z,81.59
2023-03-11T06:49:17.103Z,82.31
2023-03-11T06:52:23.259Z,83.10
2023-03-11T06:55:27.215Z,82.92
2023-03-11T06:58:31.824Z,83.89
2023-03-11T07:01:35.523Z,83.89
2023-03-11T07:04:41.475Z,84.22
2023-03-11T07:07:46.421Z,84.43
2023-03-11T07:11:02.003Z,84.58
2023-03-11T07:14:06.844Z,84.29
2023-03-11T07:17:13.523Z,84.46
2023-03-11T07:23:29.389Z,84.48
2023-03-11T07:26:35.012Z,84.42
2023-03-11T07:29:38.304Z,85.08
2023-03-11T07:32:42.991Z,84.67
2023-03-11T07:35:49.399Z,85.04
2023-03-11T07:38:59.580Z,85.49
2023-03-11T07:42:03.040Z,85.56
2023-03-11T07:45:12.566Z,85.43
2023-03-11T07:48:16.093Z,85.52
2023-03-11T07:51:22.236Z,85.80
2023-03-11T07:54:28.851Z,86.12
2023-03-11T07:57:32.271Z,86.17
2023-03-11T08:00:35.657Z,86.22
2023-03-11T08:03:40.006Z,86.40
2023-03-11T08:06:44.826Z,86.63
2023-03-11T08:09:49.747Z,86.95
2023-03-11T08:12:53.294Z,86.86
2023-03-11T08:15:56.831Z,86.86
2023-03-11T08:19:00.505Z,86.78
2023-03-11T08:22:04.875Z,86.97
2023-03-11T08:25:10.284Z,87.25
2023-03-11T08:28:28.413Z,87.01
2023-03-11T08:31:35.152Z,87.24
2023-03-11T08:34:39.779Z,87.26
2023-03-11T08:37:43.555Z,87.30
2023-03-11T08:40:48.700Z,87.58
2023-03-11T08:43:53.470Z,87.49
2023-03-11T08:46:57.124Z,87.72
2023-03-11T08:50:01.118Z,87.82
2023-03-11T08:53:07.180Z,87.72
2023-03-11T08:56:12.262Z,87.79
2023-03-11T08:59:15.867Z,87.82
2023-03-11T09:02:19.687Z,87.65
2023-03-11T09:05:23.811Z,87.67
2023-03-11T09:08:28.126Z,87.67
2023-03-11T09:11:32.978Z,87.74
2023-03-11T09:14:39.433Z,87.63
2023-03-11T09:17:45.117Z,87.53
2023-03-11T09:20:51.949Z,87.89
2023-03-11T09:23:55.372Z,87.24
2023-03-11T09:27:00.152Z,87.27
2023-03-11T09:30:03.734Z,87.63
2023-03-11T09:33:07.256Z,87.77
2023-03-11T09:36:14.903Z,87.42
2023-03-11T09:39:18.520Z,87.01
2023-03-11T09:42:31.820Z,87.04
2023-03-11T09:45:43.664Z,86.98
2023-03-11T09:48:55.194Z,86.75
2023-03-11T09:52:08.131Z,86.58
2023-03-11T09:55:27.795Z,86.48
2023-03-11T09:58:40.914Z,86.50
2023-03-11T10:01:47.917Z,86.36
2023-03-11T10:04:56.408Z,86.42
2023-03-11T10:08:10.378Z,86.51
2023-03-11T10:11:27.412Z,86.28
2023-03-11T10:14:44.078Z,86.02
2023-03-11T10:18:05.817Z,85.52
2023-03-11T10:21:20.323Z,85.77
2023-03-11T10:24:41.211Z,85.37
2023-03-11T10:27:51.538Z,85.47
2023-03-11T10:31:01.693Z,85.64
2023-03-11T10:34:14.431Z,85.88
2023-03-11T10:37:22.007Z,85.94
2023-03-11T10:40:34.240Z,85.45
2023-03-11T10:43:41.369Z,85.12
2023-03-11T10:46:46.677Z,85.00
2023-03-11T10:49:50.341Z,84.38
2023-03-11T10:53:09.005Z,83.96
2023-03-11T10:56:27.175Z,84.49
2023-03-11T10:59:33.731Z,84.17
2023-03-11T11:02:43.879Z,84.72
2023-03-11T11:06:00.040Z,84.13
2023-03-11T11:09:17.560Z,83.82
2023-03-11T11:12:22.622Z,83.38
2023-03-11T11:15:28.151Z,82.94
2023-03-11T11:18:36.040Z,82.57
2023-03-11T11:21:43.389Z,82.46
2023-03-11T11:24:48.625Z,82.56
2023-03-11T11:27:56.219Z,83.05
2023-03-11T11:31:01.975Z,83.37
2023-03-11T11:34:28.407Z,83.81
2023-03-11T11:37:35.924Z,84.61
2023-03-11T11:40:39.409Z,84.79
2023-03-11T11:43:50.992Z,83.86
2023-03-11T11:46:58.698Z,83.01
2023-03-11T11:50:07.101Z,82.53
2023-03-11T11:53:26.803Z,81.44
2023-03-11T11:56:31.104Z,81.35
2023-03-11T11:59:34.617Z,81.14
2023-03-11T12:02:54.759Z,80.57
2023-03-11T12:06:02.875Z,80.47
2023-03-11T12:09:24.454Z,80.19
2023-03-11T12:12:34.330Z,80.67
2023-03-11T12:15:42.431Z,80.38
2023-03-11T12:18:52.190Z,79.88
2023-03-11T12:22:18.959Z,80.36
2023-03-11T12:25:30.158Z,81.56
2023-03-11T12:28:42.362Z,82.05
2023-03-11T12:31:48.082Z,81.65
2023-03-11T12:34:52.095Z,81.32
2023-03-11T12:38:06.829Z,80.93
2023-03-11T12:41:29.651Z,81.27
2023-03-11T12:44:36.404Z,81.73
2023-03-11T12:47:40.102Z,82.23
2023-03-11T12:50:44.901Z,82.69
2023-03-11T12:53:50.749Z,82.75
2023-03-11T12:57:00.794Z,82.89
2023-03-11T13:00:23.150Z,82.24
2023-03-11T13:03:41.008Z,82.05
2023-03-11T13:07:12.644Z,82.19
2023-03-11T13:10:36.648Z,82.40
2023-03-11T13:13:41.618Z,81.76
2023-03-11T13:16:46.459Z,81.58
2023-03-11T13:19:53.896Z,80.68
2023-03-11T13:23:26.637Z,80.16
2023-03-11T13:26:42.070Z,80.60
2023-03-11T13:29:59.330Z,80.24
2023-03-11T13:33:30.781Z,79.67
2023-03-11T13:36:46.657Z,78.73
2023-03-11T13:40:02.255Z,78.74
2023-03-11T13:43:13.656Z,78.33
2023-03-11T13:46:31.761Z,77.07
2023-03-11T13:49:42.497Z,76.97
2023-03-11T13:52:49.353Z,76.15
2023-03-11T13:55:53.417Z,75.73
2023-03-11T13:59:17.585Z,75.78
2023-03-11T14:02:25.353Z,77.52
2023-03-11T14:05:32.649Z,78.97
2023-03-11T14:08:37.565Z,80.54
2023-03-11T14:11:43.939Z,81.06
2023-03-11T14:14:57.333Z,81.29
2023-03-11T14:18:31.610Z,80.06
2023-03-11T14:21:36.244Z,80.64
2023-03-11T14:24:40.716Z,80.02
2023-03-11T14:27:55.552Z,79.92
2023-03-11T14:31:02.360Z,79.79
2023-03-11T14:34:15.762Z,79.53
2023-03-11T14:37:29.069Z,79.56
2023-03-11T14:40:35.476Z,78.83
2023-03-11T14:43:44.384Z,79.35
2023-03-11T14:46:50.936Z,78.78
2023-03-11T14:49:56.376Z,78.80
2023-03-11T14:53:04.696Z,78.22
2023-03-11T14:56:14.791Z,78.51
2023-03-11T14:59:26.939Z,77.98
2023-03-11T15:02:44.098Z,77.03
2023-03-11T15:05:51.949Z,76.49
2023-03-11T15:09:00.860Z,77.07
2023-03-11T15:12:06.044Z,76.56
2023-03-11T15:15:24.915Z,76.35
2023-03-11T15:18:33.453Z,76.04
2023-03-11T15:21:37.252Z,75.20
2023-03-11T15:24:45.099Z,75.89
2023-03-11T15:27:48.832Z,75.39
2023-03-11T15:30:52.850Z,75.37
2023-03-11T15:33:58.340Z,73.77
2023-03-11T15:37:06.960Z,73.85
2023-03-11T15:40:20.149Z,72.56
2023-03-11T15:43:28.147Z,73.48
2023-03-11T15:46:31.866Z,74.28
2023-03-11T15:49:36.990Z,74.32
2023-03-11T15:52:40.524Z,73.91
2023-03-11T15:55:44.214Z,74.77
2023-03-11T15:58:47.983Z,74.43
2023-03-11T16:01:51.624Z,75.27
2023-03-11T16:04:58.752Z,76.09
2023-03-11T16:08:02.543Z,75.90
2023-03-11T16:11:07.272Z,76.44
2023-03-11T16:14:17.780Z,76.66
2023-03-11T16:17:23.595Z,76.53
2023-03-11T16:20:30.340Z,76.40
2023-03-11T16:23:50.785Z,76.00
2023-03-11T16:26:55.529Z,75.76
2023-03-11T16:29:59.009Z,75.72
2023-03-11T16:33:04.761Z,75.92
2023-03-11T16:36:12.436Z,75.78
2023-03-11T16:39:15.961Z,75.04
2023-03-11T16:42:25.281Z,75.51
2023-03-11T16:45:29.172Z,75.29
2023-03-11T16:48:32.720Z,75.17
2023-03-11T16:51:37.617Z,75.19
2023-03-11T16:54:41.266Z,75.04
2023-03-11T16:57:45.470Z,75.27
2023-03-11T17:00:49.217Z,75.66
2023-03-11T17:03:53.106Z,76.32
2023-03-11T17:06:58.191Z,75.56
2023-03-11T17:10:02.324Z,75.39
2023-03-11T17:13:06.128Z,75.66
2023-03-11T17:16:09.665Z,75.50
2023-03-11T17:19:13.448Z,74.59
2023-03-11T17:22:18.569Z,75.09
2023-03-11T17:25:22.456Z,75.05
2023-03-11T17:28:26.361Z,75.10
2023-03-11T17:31:30.015Z,76.00
2023-03-11T17:34:34.230Z,75.57
2023-03-11T17:37:39.161Z,75.81
2023-03-11T17:40:42.848Z,75.98
2023-03-11T17:43:49.178Z,75.84
2023-03-11T17:46:53.994Z,75.65
2023-03-11T17:49:57.781Z,75.72
2023-03-11T17:53:04.045Z,75.40
2023-03-11T17:56:09.670Z,75.18
2023-03-11T17:59:13.309Z,74.57
2023-03-11T18:02:16.889Z,74.57
2023-03-11T18:05:21.110Z,74.00
2023-03-11T18:08:26.595Z,73.93
2023-03-11T18:11:30.338Z,74.37
2023-03-11T18:14:34.159Z,74.14
2023-03-11T18:17:37.573Z,74.59
2023-03-11T18:20:42.276Z,74.21
2023-03-11T18:23:48.481Z,74.11
2023-03-11T18:26:52.213Z,74.42
2023-03-11T18:29:55.708Z,74.83
2023-03-11T18:32:59.438Z,75.22
2023-03-11T18:36:13.054Z,75.28
2023-03-11T18:39:18.138Z,75.30
2023-03-11T18:42:21.540Z,75.36
2023-03-11T18:45:25.081Z,75.43
2023-03-11T18:48:29.276Z,75.60
2023-03-11T18:51:34.298Z,75.48
2023-03-11T18:54:39.163Z,75.75
2023-03-11T18:57:45.772Z,75.95
2023-03-11T19:00:49.333Z,76.50
2023-03-11T19:03:54.515Z,76.33
2023-03-11T19:06:57.959Z,76.08
2023-03-11T19:10:05.772Z,75.84
2023-03-11T19:13:09.980Z,74.77
2023-03-11T19:16:15.484Z,75.50
2023-03-11T19:19:19.090Z,75.95
2023-03-11T19:22:22.662Z,75.38
2023-03-11T19:25:28.295Z,75.22
2023-03-11T19:28:31.897Z,75.21
2023-03-11T19:31:36.954Z,75.21
2023-03-11T19:34:40.752Z,75.25
2023-03-11T19:37:44.480Z,75.12
2023-03-11T19:40:53.629Z,75.30
2023-03-11T19:43:57.183Z,75.38
2023-03-11T19:47:00.790Z,75.73
2023-03-11T19:50:04.874Z,76.04
2023-03-11T19:53:08.562Z,76.72
2023-03-11T19:56:13.505Z,77.07
2023-03-11T19:59:17.377Z,77.29
2023-03-11T20:02:21.079Z,77.71
2023-03-11T20:05:24.592Z,77.16
2023-03-11T20:08:30.379Z,76.37
2023-03-11T20:11:38.562Z,76.05
2023-03-11T20:14:42.382Z,75.81
2023-03-11T20:17:45.869Z,75.56
2023-03-11T20:20:49.425Z,76.02
2023-03-11T20:23:55.382Z,75.92
2023-03-11T20:27:00.435Z,76.02
2023-03-11T20:30:05.002Z,75.76
2023-03-11T20:33:09.049Z,75.76
2023-03-11T20:36:14.521Z,75.65
2023-03-11T20:39:18.105Z,75.82
2023-03-11T20:42:23.072Z,76.46
2023-03-11T20:45:26.821Z,76.38
2023-03-11T20:48:31.868Z,76.33
2023-03-11T20:51:35.427Z,77.00
2023-03-11T20:54:39.010Z,77.79
2023-03-11T20:57:44.028Z,78.02
2023-03-11T21:00:47.611Z,78.19
2023-03-11T21:03:53.702Z,78.31
2023-03-11T21:06:57.830Z,78.62
2023-03-11T21:10:01.463Z,78.85
2023-03-11T21:13:06.736Z,78.65
2023-03-11T21:16:11.084Z,78.50
2023-03-11T21:19:15.829Z,79.01
2023-03-11T21:22:19.347Z,79.09
2023-03-11T21:25:23.101Z,79.60
2023-03-11T21:28:28.757Z,79.52
2023-03-11T21:31:32.425Z,78.96
2023-03-11T21:34:36.022Z,79.52
2023-03-11T21:37:39.683Z,79.52
2023-03-11T21:40:43.422Z,79.28
2023-03-11T21:43:50.224Z,79.33
2023-03-11T21:46:53.837Z,79.86
2023-03-11T21:49:57.481Z,80.38
2023-03-11T21:53:02.408Z,80.58
2023-03-11T21:56:06.661Z,80.76
2023-03-11T21:59:11.728Z,80.92
2023-03-11T22:02:18.017Z,81.14
2023-03-11T22:05:21.725Z,81.33
2023-03-11T22:08:25.721Z,81.44
2023-03-11T22:11:29.975Z,81.57
2023-03-11T22:14:35.161Z,81.05
2023-03-11T22:17:39.029Z,81.00
2023-03-11T22:20:44.406Z,80.95
2023-03-11T22:23:49.076Z,81.10
2023-03-11T22:26:52.938Z,81.80
2023-03-11T22:29:57.886Z,81.13
2023-03-11T22:33:02.394Z,81.61
2023-03-11T22:36:07.897Z,81.80
2023-03-11T22:39:11.516Z,81.33
2023-03-11T22:42:15.036Z,81.25
2023-03-11T22:45:22.380Z,81.30
2023-03-11T22:48:25.995Z,81.28
2023-03-11T22:51:29.535Z,80.69
2023-03-11T22:54:33.285Z,80.59
2023-03-11T22:57:38.989Z,80.78
2023-03-11T23:00:44.557Z,80.43
2023-03-11T23:03:48.218Z,80.48
2023-03-11T23:06:54.486Z,80.51
2023-03-11T23:09:57.960Z,80.11
2023-03-11T23:13:01.557Z,80.62
2023-03-11T23:16:09.736Z,80.61
2023-03-11T23:19:14.039Z,80.12
2023-03-11T23:22:17.488Z,79.89
2023-03-11T23:25:21.424Z,80.26
2023-03-11T23:28:24.916Z,79.79
2023-03-11T23:31:32.337Z,80.07
2023-03-11T23:34:36.636Z,80.10
2023-03-11T23:37:40.450Z,79.72
2023-03-11T23:40:43.991Z,80.12
2023-03-11T23:43:47.795Z,79.83
2023-03-11T23:46:52.924Z,80.00
2023-03-11T23:49:56.559Z,80.07
2023-03-11T23:53:00.068Z,79.91
2023-03-11T23:56:03.496Z,80.27
2023-03-11T23:59:06.987Z,80.34
